Time;durP1;ratioP1;P1;durP2;ratioP2;P2;SDS_P1;SDS_P2;PMS_P1;PMS_P2;Temp;Humidity;BMP_temperature;BMP_pressure;BME280_temperature;BME280_humidity;BME280_pressure;Samples;Min_cycle;Max_cycle;Signal;HPM_P1;HPM_P2
2023/05/18 00:00:22;;;;;;;16.13;5.60;;;8.00;99.90;;;;;;5099506;28;20199;-59
2023/05/18 00:02:50;;;;;;;19.00;6.57;;;8.00;99.90;;;;;;5098432;28;20223;-59
2023/05/18 00:05:19;;;;;;;13.73;6.30;;;7.90;99.90;;;;;;5091332;28;20620;-59
2023/05/18 00:07:47;;;;;;;16.57;5.43;;;7.90;99.90;;;;;;5086459;28;20225;-59
2023/05/18 00:10:15;;;;;;;14.73;6.17;;;7.90;99.90;;;;;;5094445;28;20219;-59
2023/05/18 00:12:44;;;;;;;22.13;6.53;;;7.80;99.90;;;;;;5094040;28;20219;-59
2023/05/18 00:15:12;;;;;;;8.63;5.77;;;7.80;99.90;;;;;;5094305;28;20188;-58
2023/05/18 00:17:42;;;;;;;12.60;5.30;;;7.80;99.90;;;;;;5093295;28;20222;-59
2023/05/18 00:20:10;;;;;;;11.53;5.60;;;7.70;99.90;;;;;;5092380;28;20588;-59
2023/05/18 00:22:41;;;;;;;14.43;6.13;;;7.70;99.90;;;;;;5084690;28;20212;-59
2023/05/18 00:25:10;;;;;;;16.00;6.03;;;7.70;99.90;;;;;;5094651;28;20215;-59
2023/05/18 00:27:38;;;;;;;10.27;6.03;;;7.70;99.90;;;;;;5073520;28;20207;-59
2023/05/18 00:30:07;;;;;;;13.47;6.27;;;7.70;99.90;;;;;;5074219;28;20192;-59
2023/05/18 00:32:36;;;;;;;17.97;5.93;;;7.60;99.90;;;;;;5077227;28;20227;-59
2023/05/18 00:35:06;;;;;;;20.27;6.10;;;7.60;99.90;;;;;;5073242;28;20216;-59
2023/05/18 00:37:34;;;;;;;14.43;7.20;;;7.50;99.90;;;;;;5075195;28;20234;-59
2023/05/18 00:40:05;;;;;;;11.27;6.13;;;7.50;99.90;;;;;;5080728;28;20230;-59
2023/05/18 00:42:33;;;;;;;15.63;6.80;;;7.50;99.90;;;;;;5077329;28;20539;-59
2023/05/18 00:45:02;;;;;;;13.97;6.20;;;7.50;99.90;;;;;;5072956;28;20195;-60
2023/05/18 00:47:30;;;;;;;14.63;7.00;;;7.50;99.90;;;;;;5072206;28;20265;-60
2023/05/18 00:49:58;;;;;;;11.87;6.47;;;7.50;99.90;;;;;;5075410;28;20216;-59
2023/05/18 00:52:31;;;;;;;18.17;7.03;;;7.40;99.90;;;;;;5072925;28;20224;-58
2023/05/18 00:55:00;;;;;;;17.40;7.20;;;7.40;99.90;;;;;;5074335;28;20220;-59
2023/05/18 00:57:28;;;;;;;15.57;6.73;;;7.40;99.90;;;;;;5072323;28;20202;-59
2023/05/18 00:59:57;;;;;;;21.57;6.93;;;7.40;99.90;;;;;;5088153;28;20195;-59
2023/05/18 01:05:28;;;;;;;13.37;6.77;;;7.40;99.90;;;;;;5276074;23;20243;-59
2023/05/18 01:08:34;;;;;;;16.97;6.67;;;7.30;99.90;;;;;;4970029;28;20207;-59
2023/05/18 01:11:11;;;;;;;15.30;6.60;;;7.30;99.90;;;;;;4972846;28;20234;-59
2023/05/18 01:13:50;;;;;;;14.17;6.00;;;7.30;99.90;;;;;;4969598;28;20227;-60
2023/05/18 01:16:25;;;;;;;20.87;6.80;;;7.30;99.90;;;;;;4976222;28;20226;-59
2023/05/18 01:19:04;;;;;;;18.63;6.53;;;7.30;99.90;;;;;;4972702;28;20262;-59
2023/05/18 01:21:45;;;;;;;13.77;6.20;;;7.30;99.90;;;;;;4974935;28;20202;-60
2023/05/18 01:24:27;;;;;;;14.67;6.03;;;7.20;99.90;;;;;;4978635;28;20234;-59
2023/05/18 01:27:00;;;;;;;18.27;6.17;;;7.30;99.90;;;;;;4954650;28;20240;-59
2023/05/18 01:29:30;;;;;;;12.00;5.67;;;7.20;99.90;;;;;;4971405;28;20223;-59
2023/05/18 01:31:58;;;;;;;12.80;6.03;;;7.20;99.90;;;;;;4974921;28;20591;-59
2023/05/18 01:34:26;;;;;;;15.77;6.20;;;7.20;99.90;;;;;;4961160;28;20223;-59
2023/05/18 01:36:55;;;;;;;14.77;5.97;;;7.20;99.90;;;;;;4952885;28;20315;-59
2023/05/18 01:39:23;;;;;;;12.10;6.17;;;7.20;99.90;;;;;;4954613;28;20196;-59
2023/05/18 01:41:56;;;;;;;13.20;6.17;;;7.20;99.90;;;;;;4974382;28;20203;-59
2023/05/18 01:44:34;;;;;;;12.47;5.97;;;7.10;99.90;;;;;;4975228;28;20701;-59
2023/05/18 01:50:36;;;;;;;18.87;6.20;;;7.10;99.90;;;;;;4981043;28;20231;-59
2023/05/18 01:53:11;;;;;;;11.10;5.77;;;7.00;99.90;;;;;;4973934;28;20278;-59
2023/05/18 01:55:41;;;;;;;17.53;6.57;;;7.00;99.90;;;;;;4968391;28;20225;-59
2023/05/18 01:58:11;;;;;;;17.37;6.47;;;7.00;99.90;;;;;;4965510;28;20238;-59
2023/05/18 02:00:41;;;;;;;13.97;7.00;;;7.00;99.90;;;;;;4973401;28;20195;-59
2023/05/18 02:06:32;;;;;;;11.60;5.73;;;6.90;99.90;;;;;;4965570;28;20227;-59
2023/05/18 02:09:00;;;;;;;10.57;5.90;;;6.90;99.90;;;;;;4959049;28;20185;-58
2023/05/18 02:11:28;;;;;;;13.17;5.47;;;6.90;99.90;;;;;;4971145;28;20226;-59
2023/05/18 02:13:57;;;;;;;15.60;5.90;;;6.80;99.90;;;;;;4973405;28;20230;-60
2023/05/18 02:16:26;;;;;;;16.47;5.27;;;6.80;99.90;;;;;;4973615;28;20246;-59
2023/05/18 02:18:54;;;;;;;12.67;5.57;;;6.80;99.90;;;;;;4969731;28;20219;-59
2023/05/18 02:21:24;;;;;;;13.87;5.97;;;6.80;99.90;;;;;;4973582;28;20199;-59
2023/05/18 02:23:55;;;;;;;16.27;5.63;;;6.80;99.90;;;;;;4974733;28;20222;-59
2023/05/18 02:26:23;;;;;;;13.93;6.00;;;6.90;99.90;;;;;;4971859;28;20215;-59
2023/05/18 02:29:13;;;;;;;8.60;5.50;;;6.90;99.90;;;;;;4974655;28;20219;-59
2023/05/18 02:31:43;;;;;;;15.63;5.93;;;6.80;99.90;;;;;;4970069;28;20617;-58
2023/05/18 02:34:11;;;;;;;13.27;5.17;;;6.80;99.90;;;;;;4976857;28;20235;-58
2023/05/18 02:36:41;;;;;;;21.90;5.70;;;6.80;99.90;;;;;;4975760;28;20191;-59
2023/05/18 02:39:10;;;;;;;10.13;5.57;;;6.80;99.90;;;;;;4976703;28;20198;-58
2023/05/18 02:41:38;;;;;;;11.63;5.60;;;6.80;99.90;;;;;;4969904;28;20219;-59
2023/05/18 02:44:06;;;;;;;10.60;5.83;;;6.70;99.90;;;;;;4976371;28;20219;-58
2023/05/18 02:46:35;;;;;;;13.20;6.03;;;6.70;99.90;;;;;;4964890;28;20219;-59
2023/05/18 02:49:04;;;;;;;14.90;5.40;;;6.70;99.90;;;;;;4965943;28;20242;-59
2023/05/18 02:51:33;;;;;;;15.00;5.50;;;6.70;99.90;;;;;;4973501;28;20215;-58
2023/05/18 02:54:01;;;;;;;13.23;5.83;;;6.60;99.90;;;;;;4976628;28;20203;-58
2023/05/18 02:56:31;;;;;;;11.63;5.63;;;6.60;99.90;;;;;;4975755;28;20219;-58
2023/05/18 02:59:37;;;;;;;10.53;5.83;;;6.60;99.90;;;;;;4976054;28;20235;-58
2023/05/18 03:02:05;;;;;;;12.83;6.33;;;6.60;99.90;;;;;;4974293;28;20696;-58
2023/05/18 03:04:36;;;;;;;12.30;5.53;;;6.60;99.90;;;;;;4974483;28;20231;-59
2023/05/18 03:07:06;;;;;;;11.43;5.77;;;6.60;99.90;;;;;;4976846;28;20224;-59
2023/05/18 03:09:35;;;;;;;15.57;5.93;;;6.60;99.90;;;;;;4975853;28;20634;-59
2023/05/18 03:12:03;;;;;;;11.97;5.70;;;6.60;99.90;;;;;;4976741;28;20195;-58
2023/05/18 03:14:31;;;;;;;11.57;6.07;;;6.60;99.90;;;;;;4975574;28;20223;-58
2023/05/18 03:17:00;;;;;;;12.37;5.90;;;6.60;99.90;;;;;;4973901;28;20234;-58
2023/05/18 03:19:28;;;;;;;15.90;5.70;;;6.50;99.90;;;;;;4974706;28;20230;-58
2023/05/18 03:21:59;;;;;;;8.10;5.50;;;6.50;99.90;;;;;;4974707;28;20584;-59
2023/05/18 03:24:29;;;;;;;11.77;5.77;;;6.60;99.90;;;;;;4975499;28;20200;-59
2023/05/18 03:26:59;;;;;;;12.40;5.70;;;6.50;99.90;;;;;;4976727;28;20242;-59
2023/05/18 03:29:28;;;;;;;13.43;6.50;;;6.50;99.90;;;;;;4974949;28;20281;-58
2023/05/18 03:31:58;;;;;;;14.43;5.93;;;6.50;99.90;;;;;;4975648;28;20274;-59
2023/05/18 03:34:26;;;;;;;13.23;6.07;;;6.50;99.90;;;;;;4967625;28;20227;-59
2023/05/18 03:36:56;;;;;;;15.27;6.07;;;6.50;99.90;;;;;;4973588;28;20250;-58
2023/05/18 03:39:26;;;;;;;13.67;6.07;;;6.50;99.90;;;;;;4974409;28;20551;-59
2023/05/18 03:41:54;;;;;;;11.27;6.00;;;6.50;99.90;;;;;;4975273;28;20642;-59
2023/05/18 03:44:23;;;;;;;11.80;6.00;;;6.50;99.90;;;;;;4975423;28;20239;-59
2023/05/18 03:46:51;;;;;;;12.50;6.00;;;6.50;99.90;;;;;;4975320;28;20238;-59
2023/05/18 03:49:19;;;;;;;12.37;5.60;;;6.50;99.90;;;;;;4974787;28;20237;-59
2023/05/18 03:51:53;;;;;;;11.10;5.60;;;6.50;99.90;;;;;;4969170;28;20231;-59
2023/05/18 03:54:59;;;;;;;8.77;5.53;;;6.40;99.90;;;;;;4973818;28;20238;-59
2023/05/18 03:57:50;;;;;;;14.87;5.80;;;6.40;99.90;;;;;;4975099;28;20231;-59
2023/05/18 04:00:39;;;;;;;9.97;6.00;;;6.40;99.90;;;;;;4975308;28;20187;-59
2023/05/18 04:03:29;;;;;;;14.57;6.57;;;6.40;99.90;;;;;;4968879;28;20219;-59
2023/05/18 04:05:57;;;;;;;14.27;5.23;;;6.40;99.90;;;;;;4971056;28;20570;-59
2023/05/18 04:08:29;;;;;;;10.93;5.73;;;6.40;99.90;;;;;;4974706;28;20216;-59
2023/05/18 04:10:57;;;;;;;16.33;5.73;;;6.40;99.90;;;;;;4972162;28;20227;-59
2023/05/18 04:13:27;;;;;;;14.03;6.30;;;6.40;99.90;;;;;;4974710;28;20673;-59
2023/05/18 04:15:56;;;;;;;10.17;5.90;;;6.40;99.90;;;;;;4970801;28;20227;-58
2023/05/18 04:18:43;;;;;;;18.27;6.00;;;6.40;99.90;;;;;;4973172;28;20203;-59
2023/05/18 04:21:12;;;;;;;11.33;6.17;;;6.40;99.90;;;;;;4972362;28;20783;-59
2023/05/18 04:23:40;;;;;;;10.03;6.17;;;6.50;99.90;;;;;;4974395;28;20589;-58
2023/05/18 04:26:08;;;;;;;13.67;6.30;;;6.50;99.90;;;;;;4976914;28;20222;-59
2023/05/18 04:28:38;;;;;;;15.63;6.60;;;6.50;99.90;;;;;;4967269;28;20557;-59
2023/05/18 04:31:06;;;;;;;12.83;7.17;;;6.60;99.90;;;;;;4969529;28;20223;-58
2023/05/18 04:33:34;;;;;;;15.70;7.10;;;6.70;99.90;;;;;;4974251;28;20526;-59
2023/05/18 04:36:03;;;;;;;15.60;6.60;;;6.80;99.90;;;;;;4973999;28;20195;-59
2023/05/18 04:38:34;;;;;;;13.47;6.57;;;6.90;99.90;;;;;;4974359;28;20236;-59
2023/05/18 04:41:05;;;;;;;14.80;6.50;;;6.90;99.90;;;;;;4973952;28;20224;-58
2023/05/18 04:43:35;;;;;;;12.03;6.30;;;6.90;99.90;;;;;;4973920;28;20223;-59
2023/05/18 04:46:05;;;;;;;10.33;6.53;;;7.00;99.90;;;;;;4973813;28;20582;-59
2023/05/18 04:48:35;;;;;;;12.77;6.00;;;7.00;99.90;;;;;;4974431;28;20222;-59
2023/05/18 04:51:04;;;;;;;12.87;6.30;;;7.10;99.90;;;;;;4974791;28;20577;-58
2023/05/18 04:53:33;;;;;;;11.03;6.17;;;7.20;99.90;;;;;;4967605;28;20231;-59
2023/05/18 04:56:02;;;;;;;12.97;5.73;;;7.30;99.90;;;;;;4973279;28;20216;-59
2023/05/18 04:58:30;;;;;;;12.77;6.07;;;7.40;99.90;;;;;;4965124;28;20211;-58
2023/05/18 05:00:58;;;;;;;12.17;6.30;;;7.50;99.90;;;;;;4974322;28;20231;-58
2023/05/18 05:03:28;;;;;;;9.17;5.40;;;7.60;99.90;;;;;;4970964;28;20219;-59
2023/05/18 05:05:56;;;;;;;16.20;5.87;;;7.70;99.90;;;;;;4965072;28;20570;-59
2023/05/18 05:08:25;;;;;;;11.77;5.27;;;7.80;99.90;;;;;;4973173;28;20356;-58
2023/05/18 05:10:53;;;;;;;11.97;5.80;;;7.90;99.90;;;;;;4965617;28;20222;-59
2023/05/18 05:13:21;;;;;;;11.23;5.60;;;8.00;99.90;;;;;;4974035;28;20219;-59
2023/05/18 05:15:50;;;;;;;13.97;5.40;;;8.00;99.90;;;;;;4973943;28;20569;-59
2023/05/18 05:18:18;;;;;;;9.87;5.20;;;8.00;99.90;;;;;;4973713;28;20223;-59
2023/05/18 05:20:50;;;;;;;10.57;5.53;;;8.00;99.90;;;;;;4973624;28;20219;-59
2023/05/18 05:30:08;;;;;;;10.70;5.60;;;8.10;99.90;;;;;;4964296;28;20235;-59
2023/05/18 05:32:36;;;;;;;10.40;4.90;;;8.20;99.90;;;;;;4973050;28;20681;-59
2023/05/18 05:35:05;;;;;;;13.27;5.17;;;8.20;99.90;;;;;;4972897;28;20227;-59
2023/05/18 05:37:35;;;;;;;7.63;4.63;;;8.30;99.90;;;;;;4968541;28;20222;-59
2023/05/18 05:40:05;;;;;;;9.80;4.90;;;8.40;99.90;;;;;;4973385;28;20314;-59
2023/05/18 05:42:33;;;;;;;14.23;4.93;;;8.50;99.90;;;;;;4974334;28;20199;-59
2023/05/18 05:45:01;;;;;;;12.87;5.20;;;8.50;99.90;;;;;;4974100;28;20187;-59
2023/05/18 05:47:30;;;;;;;10.63;4.80;;;8.60;99.90;;;;;;4973546;28;20219;-59
2023/05/18 05:53:28;;;;;;;13.63;5.03;;;8.70;99.90;;;;;;4972807;28;20227;-59
2023/05/18 05:56:15;;;;;;;12.23;5.00;;;8.80;99.90;;;;;;4965442;28;20223;-59
2023/05/18 05:58:43;;;;;;;10.90;5.20;;;8.90;99.90;;;;;;4966024;28;20701;-58
2023/05/18 06:01:11;;;;;;;7.97;4.73;;;9.00;99.90;;;;;;4973671;28;20231;-60
2023/05/18 06:03:40;;;;;;;10.80;4.57;;;9.10;99.90;;;;;;4971326;28;20242;-59
2023/05/18 06:06:08;;;;;;;12.20;4.60;;;9.20;99.90;;;;;;4977521;28;20565;-59
2023/05/18 06:08:38;;;;;;;15.33;5.47;;;9.30;99.90;;;;;;4992129;28;20231;-58
2023/05/18 06:11:06;;;;;;;9.73;4.80;;;9.30;99.90;;;;;;4976521;28;20227;-59
2023/05/18 06:13:38;;;;;;;13.10;5.60;;;9.30;99.90;;;;;;4958316;28;20246;-59
2023/05/18 06:16:06;;;;;;;14.13;5.40;;;9.30;99.90;;;;;;4969622;28;20717;-59
2023/05/18 06:22:16;;;;;;;13.60;5.27;;;9.40;99.90;;;;;;4977150;28;20219;-59
2023/05/18 06:24:46;;;;;;;8.27;4.80;;;9.50;99.90;;;;;;4977145;28;20223;-58
2023/05/18 06:27:15;;;;;;;7.90;4.80;;;9.50;99.90;;;;;;4973103;28;20243;-59
2023/05/18 06:29:43;;;;;;;11.37;4.97;;;9.60;99.90;;;;;;4976565;28;20215;-59
2023/05/18 06:32:12;;;;;;;10.87;5.33;;;9.70;99.90;;;;;;4976947;28;20678;-59
2023/05/18 06:34:41;;;;;;;13.03;5.37;;;9.90;99.90;;;;;;4976622;28;20684;-59
2023/05/18 06:37:10;;;;;;;12.93;6.03;;;10.00;99.90;;;;;;4976911;28;20234;-59
2023/05/18 06:39:39;;;;;;;13.70;5.27;;;10.10;99.90;;;;;;4977028;28;20625;-59
2023/05/18 06:42:08;;;;;;;8.53;4.93;;;10.20;99.90;;;;;;4976956;28;20601;-60
2023/05/18 06:44:37;;;;;;;14.73;5.07;;;10.30;99.90;;;;;;4976834;28;20226;-60
2023/05/18 06:47:05;;;;;;;9.67;5.03;;;10.40;99.90;;;;;;4976622;28;20219;-59
2023/05/18 06:49:34;;;;;;;11.00;5.10;;;10.50;99.90;;;;;;4976232;28;20696;-59
2023/05/18 06:52:02;;;;;;;10.63;4.90;;;10.60;99.90;;;;;;4976810;28;20227;-58
2023/05/18 06:54:30;;;;;;;9.10;4.90;;;10.60;99.90;;;;;;4967235;28;20602;-59
2023/05/18 06:56:59;;;;;;;12.30;4.97;;;10.70;99.90;;;;;;4975497;28;20214;-59
2023/05/18 06:59:28;;;;;;;9.23;5.00;;;11.00;99.90;;;;;;4976528;28;20219;-59
2023/05/18 07:01:56;;;;;;;11.43;5.10;;;11.20;99.90;;;;;;4974986;28;20566;-59
2023/05/18 07:04:25;;;;;;;9.07;5.60;;;11.30;99.90;;;;;;4976191;28;20226;-59
2023/05/18 07:06:54;;;;;;;14.37;5.17;;;11.50;99.90;;;;;;4976348;28;20245;-59
2023/05/18 07:09:22;;;;;;;12.67;5.77;;;11.60;99.90;;;;;;4976009;28;20195;-58
2023/05/18 07:11:51;;;;;;;11.17;4.90;;;11.70;99.90;;;;;;4976094;28;20304;-59
2023/05/18 07:14:19;;;;;;;6.43;4.83;;;11.80;99.90;;;;;;4975807;28;20788;-59
2023/05/18 07:16:49;;;;;;;9.47;5.10;;;11.80;99.90;;;;;;4975997;28;20238;-59
2023/05/18 07:19:17;;;;;;;11.47;4.90;;;11.80;99.90;;;;;;4976198;28;20677;-58
2023/05/18 07:21:45;;;;;;;10.20;5.43;;;11.80;99.90;;;;;;4976797;28;20304;-59
2023/05/18 07:24:16;;;;;;;13.77;5.33;;;11.80;99.90;;;;;;4972799;28;20290;-59
2023/05/18 07:26:45;;;;;;;10.77;5.10;;;11.80;99.90;;;;;;4973486;28;20219;-58
2023/05/18 07:29:13;;;;;;;10.60;5.03;;;11.80;99.90;;;;;;4972986;28;20287;-59
2023/05/18 07:31:41;;;;;;;9.13;4.90;;;11.90;99.90;;;;;;4975225;28;20223;-59
2023/05/18 07:34:11;;;;;;;10.57;5.47;;;12.00;99.90;;;;;;4975400;28;20258;-59
2023/05/18 07:36:39;;;;;;;12.27;5.30;;;12.40;99.90;;;;;;4975908;28;20685;-59
2023/05/18 07:39:08;;;;;;;9.07;5.07;;;12.60;99.90;;;;;;4975844;28;20196;-60
2023/05/18 07:41:36;;;;;;;8.47;4.77;;;12.80;99.90;;;;;;4975970;28;20243;-59
2023/05/18 07:44:05;;;;;;;9.30;5.20;;;13.00;99.90;;;;;;4975215;28;20219;-59
2023/05/18 07:46:33;;;;;;;12.43;5.07;;;13.30;99.90;;;;;;4975308;28;20226;-58
2023/05/18 07:49:01;;;;;;;13.13;4.87;;;13.60;99.90;;;;;;4975296;28;20249;-59
2023/05/18 07:51:31;;;;;;;12.30;4.90;;;13.70;99.90;;;;;;4975552;28;20234;-59
2023/05/18 07:53:59;;;;;;;14.10;4.80;;;13.70;99.90;;;;;;4975616;28;20191;-60
2023/05/18 07:56:28;;;;;;;8.93;5.17;;;13.90;99.90;;;;;;4992029;28;20239;-59
2023/05/18 08:06:04;;;;;;;6.97;4.90;;;14.10;99.90;;;;;;4974505;28;20235;-59
2023/05/18 08:08:36;;;;;;;11.70;4.70;;;14.40;99.90;;;;;;4973526;28;20223;-59
2023/05/18 08:11:05;;;;;;;6.83;4.50;;;14.60;99.90;;;;;;4969220;28;20233;-59
2023/05/18 08:13:33;;;;;;;9.83;5.23;;;14.80;99.90;;;;;;4976569;28;20230;-59
2023/05/18 08:16:02;;;;;;;11.20;4.90;;;14.70;99.90;;;;;;4975233;28;20252;-59
2023/05/18 08:18:39;;;;;;;10.03;4.83;;;14.80;99.90;;;;;;4974451;28;20187;-59
2023/05/18 08:21:08;;;;;;;9.83;4.83;;;14.80;99.90;;;;;;4975492;28;20195;-60
2023/05/18 08:23:39;;;;;;;8.90;4.77;;;14.60;99.90;;;;;;4974272;28;20238;-59
2023/05/18 08:26:08;;;;;;;8.73;4.77;;;14.50;99.90;;;;;;4974198;28;20230;-60
2023/05/18 08:28:38;;;;;;;11.53;4.80;;;14.90;99.90;;;;;;4971143;28;20732;-59
2023/05/18 08:31:06;;;;;;;9.03;4.70;;;15.10;99.90;;;;;;4974026;28;20223;-59
2023/05/18 08:33:35;;;;;;;12.33;5.20;;;15.20;99.90;;;;;;4974733;28;20282;-60
2023/05/18 08:36:03;;;;;;;11.23;4.80;;;15.40;99.90;;;;;;4975376;28;20680;-60
2023/05/18 08:38:32;;;;;;;15.23;4.53;;;15.60;99.90;;;;;;4977141;28;20295;-60
2023/05/18 08:41:11;;;;;;;10.77;4.67;;;15.60;99.90;;;;;;4974108;28;20219;-59
2023/05/18 08:43:45;;;;;;;9.37;4.30;;;15.80;99.90;;;;;;4955405;28;20266;-60
2023/05/18 08:46:20;;;;;;;8.80;4.63;;;16.00;99.90;;;;;;4972732;28;20237;-59
2023/05/18 08:48:52;;;;;;;8.67;4.43;;;16.30;99.90;;;;;;4971757;28;20247;-60
2023/05/18 08:51:22;;;;;;;10.03;4.93;;;16.50;99.90;;;;;;4974532;28;20222;-60
2023/05/18 08:53:53;;;;;;;8.77;4.60;;;17.10;99.90;;;;;;4977861;28;20686;-60
2023/05/18 08:56:25;;;;;;;5.70;4.50;;;17.50;99.90;;;;;;4974194;28;20222;-60
2023/05/18 08:58:56;;;;;;;9.20;4.07;;;17.50;99.90;;;;;;4974383;28;20230;-60
2023/05/18 09:01:27;;;;;;;10.77;4.30;;;17.70;99.90;;;;;;4973163;28;20240;-60
2023/05/18 09:03:57;;;;;;;8.00;3.77;;;17.90;99.90;;;;;;4967698;28;20581;-60
2023/05/18 09:06:27;;;;;;;8.23;4.33;;;18.20;99.90;;;;;;4973242;28;20269;-60
2023/05/18 09:08:57;;;;;;;11.77;4.10;;;18.70;99.90;;;;;;4968274;28;20282;-60
2023/05/18 09:11:27;;;;;;;10.87;4.63;;;18.80;99.90;;;;;;4971512;28;20250;-60
2023/05/18 09:13:56;;;;;;;6.67;3.90;;;18.70;99.90;;;;;;4973180;28;20223;-60
2023/05/18 09:16:24;;;;;;;10.50;4.60;;;18.40;99.90;;;;;;4966250;28;20224;-60
2023/05/18 09:19:11;;;;;;;11.30;3.83;;;18.70;99.90;;;;;;4968794;28;20215;-60
2023/05/18 09:21:40;;;;;;;7.77;4.13;;;18.70;99.90;;;;;;4966401;28;20268;-59
2023/05/18 09:24:10;;;;;;;5.67;3.57;;;18.70;99.90;;;;;;4971622;28;20197;-60
2023/05/18 09:26:40;;;;;;;11.47;4.20;;;18.90;99.90;;;;;;4973636;28;20239;-60
2023/05/18 09:29:19;;;;;;;10.27;3.53;;;18.70;99.90;;;;;;4973535;28;20333;-60
2023/05/18 09:31:48;;;;;;;11.17;3.33;;;18.80;99.90;;;;;;4972455;28;20212;-60
2023/05/18 09:47:27;;;;;;;6.97;3.50;;;20.20;99.90;;;;;;4935577;28;20230;-62
2023/05/18 09:57:20;;;;;;;10.73;3.70;;;20.50;99.90;;;;;;4968459;28;20260;-62
2023/05/18 09:59:56;;;;;;;10.67;3.70;;;19.70;99.90;;;;;;4953996;28;20183;-61
2023/05/18 10:02:27;;;;;;;9.07;3.93;;;19.10;99.90;;;;;;4958163;28;20229;-62
2023/05/18 10:04:56;;;;;;;9.53;3.90;;;18.50;99.90;;;;;;4958245;28;20230;-63
2023/05/18 10:11:06;;;;;;;9.20;3.93;;;17.40;99.90;;;;;;4950799;28;20758;-62
2023/05/18 10:17:42;;;;;;;7.97;3.73;;;16.80;99.90;;;;;;4955081;28;20709;-62
2023/05/18 10:23:52;;;;;;;6.00;3.70;;;16.80;99.90;;;;;;4959273;28;20212;-62
2023/05/18 10:26:24;;;;;;;14.67;4.13;;;16.90;99.90;;;;;;4952239;28;20215;-62
2023/05/18 10:28:55;;;;;;;8.97;4.10;;;17.20;99.90;;;;;;4957346;28;20223;-62
2023/05/18 10:31:25;;;;;;;11.00;4.17;;;17.60;99.90;;;;;;4946746;28;20694;-66
2023/05/18 10:33:56;;;;;;;8.77;3.93;;;18.10;99.90;;;;;;4954807;28;20629;-63
2023/05/18 10:36:28;;;;;;;8.63;4.70;;;18.60;99.90;;;;;;4951608;28;20196;-65
2023/05/18 10:38:59;;;;;;;9.37;4.03;;;19.00;99.90;;;;;;4958077;28;20178;-62
2023/05/18 10:41:30;;;;;;;7.87;4.03;;;19.70;99.90;;;;;;4950668;28;20245;-65
2023/05/18 10:44:02;;;;;;;7.57;4.23;;;20.10;99.90;;;;;;4952794;28;20592;-64
2023/05/18 10:46:31;;;;;;;9.90;4.63;;;20.50;99.90;;;;;;4954402;28;20222;-62
2023/05/18 10:49:11;;;;;;;15.30;4.57;;;20.50;99.90;;;;;;4950144;28;20286;-60
2023/05/18 10:51:43;;;;;;;9.87;3.90;;;20.70;99.90;;;;;;4948125;28;20798;-60
2023/05/18 10:54:13;;;;;;;7.83;4.47;;;20.80;99.90;;;;;;4954148;29;20294;-60
2023/05/18 10:56:46;;;;;;;8.53;4.00;;;20.70;99.90;;;;;;4953522;28;20220;-59
2023/05/18 10:59:17;;;;;;;8.87;3.90;;;20.50;99.90;;;;;;4953773;28;20230;-59
2023/05/18 11:01:47;;;;;;;9.17;4.10;;;20.50;99.90;;;;;;4952796;28;20225;-59
2023/05/18 11:04:22;;;;;;;9.23;4.33;;;20.50;99.90;;;;;;4949486;28;20637;-60
2023/05/18 11:06:55;;;;;;;8.90;4.10;;;20.40;99.90;;;;;;4948295;28;20257;-60
2023/05/18 11:10:01;;;;;;;6.40;3.83;;;20.50;99.90;;;;;;4954433;28;20199;-61
2023/05/18 11:12:32;;;;;;;7.63;4.23;;;20.40;99.90;;;;;;4947053;28;20203;-59
2023/05/18 11:15:20;;;;;;;7.07;4.10;;;20.60;99.90;;;;;;4946266;29;20208;-59
2023/05/18 11:18:15;;;;;;;8.23;3.93;;;20.40;99.90;;;;;;4951690;28;20222;-59
2023/05/18 11:20:46;;;;;;;9.50;4.27;;;20.20;99.90;;;;;;4952726;28;20306;-60
2023/05/18 11:23:17;;;;;;;8.20;4.13;;;20.10;99.90;;;;;;4951946;28;20586;-59
2023/05/18 11:25:48;;;;;;;8.13;3.67;;;20.00;99.90;;;;;;4950397;28;20669;-59
2023/05/18 11:28:16;;;;;;;8.63;3.90;;;20.20;99.90;;;;;;4949437;28;20222;-59
2023/05/18 11:30:50;;;;;;;7.53;3.83;;;20.00;99.90;;;;;;4942783;28;20233;-59
2023/05/18 11:33:23;;;;;;;11.77;4.43;;;19.80;99.90;;;;;;4953850;29;20201;-60
2023/05/18 11:36:02;;;;;;;11.47;4.47;;;19.60;99.90;;;;;;4947120;28;20265;-59
2023/05/18 11:38:52;;;;;;;12.30;4.37;;;19.70;99.90;;;;;;4940839;28;20599;-59
2023/05/18 11:41:27;;;;;;;9.10;4.13;;;19.60;99.90;;;;;;4949174;28;20220;-59
2023/05/18 11:44:16;;;;;;;8.87;4.73;;;19.60;99.90;;;;;;4948686;28;20216;-59
2023/05/18 11:46:56;;;;;;;11.20;4.10;;;19.80;99.90;;;;;;4947212;28;20243;-59
2023/05/18 11:49:26;;;;;;;9.80;4.13;;;19.90;99.90;;;;;;4949986;28;20230;-58
2023/05/18 11:52:06;;;;;;;10.50;4.67;;;19.80;99.90;;;;;;4948438;28;20232;-59
2023/05/18 11:54:38;;;;;;;12.77;4.20;;;19.80;99.90;;;;;;4947766;28;20291;-59
2023/05/18 11:57:09;;;;;;;10.10;4.40;;;19.50;99.90;;;;;;4942893;28;20215;-58
2023/05/18 11:59:40;;;;;;;11.93;4.20;;;19.30;99.90;;;;;;4945894;28;20220;-59
2023/05/18 12:02:10;;;;;;;11.03;4.77;;;19.40;99.90;;;;;;4945093;28;20232;-59
2023/05/18 12:04:46;;;;;;;9.57;5.20;;;19.80;99.90;;;;;;4942808;28;20224;-59
2023/05/18 12:07:18;;;;;;;11.07;4.50;;;19.60;99.90;;;;;;4942253;28;20220;-59
2023/05/18 12:09:47;;;;;;;11.67;5.00;;;19.50;99.90;;;;;;4945475;28;20220;-60
2023/05/18 12:12:18;;;;;;;11.00;4.90;;;19.60;99.90;;;;;;4946272;29;20216;-59
2023/05/18 12:14:56;;;;;;;11.70;5.10;;;19.60;99.90;;;;;;4944535;28;20390;-59
2023/05/18 12:17:29;;;;;;;11.27;4.87;;;19.60;99.90;;;;;;4945830;28;20228;-58
2023/05/18 12:19:57;;;;;;;7.00;5.00;;;19.40;99.90;;;;;;4945269;28;20224;-58
2023/05/18 12:22:27;;;;;;;10.23;4.53;;;19.40;99.90;;;;;;4948368;28;20223;-58
2023/05/18 12:24:55;;;;;;;10.50;4.60;;;19.50;99.90;;;;;;4942868;28;20572;-58
2023/05/18 12:27:25;;;;;;;10.47;4.53;;;19.60;99.90;;;;;;4946745;28;20192;-58
2023/05/18 12:29:53;;;;;;;9.47;4.73;;;19.50;99.90;;;;;;4950114;28;20196;-58
2023/05/18 12:32:22;;;;;;;8.80;4.67;;;19.40;99.90;;;;;;4945315;28;20248;-58
2023/05/18 12:34:51;;;;;;;7.07;4.70;;;19.30;99.90;;;;;;4944076;28;20224;-59
2023/05/18 12:37:23;;;;;;;9.23;4.60;;;19.50;99.90;;;;;;4942781;28;20222;-58
2023/05/18 12:40:08;;;;;;;11.20;5.03;;;19.60;99.90;;;;;;4943031;28;20232;-60
2023/05/18 12:42:37;;;;;;;7.47;4.97;;;19.60;99.90;;;;;;4944957;28;20650;-58
2023/05/18 12:45:06;;;;;;;9.07;4.60;;;19.50;99.90;;;;;;4945647;28;20288;-58
2023/05/18 12:47:42;;;;;;;8.07;4.70;;;19.40;99.90;;;;;;4946256;28;20233;-58
2023/05/18 12:50:11;;;;;;;9.20;5.00;;;19.50;99.90;;;;;;4947211;28;20224;-58
2023/05/18 12:52:40;;;;;;;8.20;4.80;;;19.10;99.90;;;;;;4943203;28;20254;-59
2023/05/18 12:55:16;;;;;;;11.60;5.30;;;18.90;99.90;;;;;;4951414;28;20224;-58
2023/05/18 12:57:44;;;;;;;8.57;4.77;;;19.10;99.90;;;;;;4948360;28;20227;-59
2023/05/18 13:00:14;;;;;;;7.93;5.00;;;19.10;99.90;;;;;;4947634;28;20204;-59
2023/05/18 13:02:42;;;;;;;11.93;5.53;;;18.80;99.90;;;;;;4940021;28;20307;-58
2023/05/18 13:05:12;;;;;;;13.63;6.30;;;18.40;99.90;;;;;;4942525;28;20673;-58
2023/05/18 13:07:42;;;;;;;8.53;5.17;;;18.40;99.90;;;;;;4948243;28;20272;-59
2023/05/18 13:10:13;;;;;;;10.47;4.87;;;18.50;99.90;;;;;;4941706;28;20232;-59
2023/05/18 13:12:44;;;;;;;9.10;4.57;;;18.70;99.90;;;;;;4947063;28;20216;-58
2023/05/18 13:15:13;;;;;;;7.40;4.70;;;18.60;99.90;;;;;;4945255;28;20192;-59
2023/05/18 13:17:58;;;;;;;8.27;5.10;;;18.80;99.90;;;;;;4942291;28;20231;-59
2023/05/18 13:20:34;;;;;;;7.67;4.80;;;19.30;99.90;;;;;;4942714;28;20231;-58
2023/05/18 13:23:08;;;;;;;9.20;5.03;;;19.60;99.90;;;;;;4942590;28;20264;-59
2023/05/18 13:25:37;;;;;;;6.13;4.33;;;19.30;99.90;;;;;;4944763;28;20216;-58
2023/05/18 13:28:09;;;;;;;8.23;4.53;;;19.20;99.90;;;;;;4948131;28;20574;-58
2023/05/18 13:30:38;;;;;;;11.20;4.53;;;19.20;99.90;;;;;;4941583;28;20200;-57
2023/05/18 13:33:08;;;;;;;11.13;4.63;;;19.10;99.90;;;;;;4935463;29;20221;-58
2023/05/18 13:35:36;;;;;;;8.37;4.73;;;19.20;99.90;;;;;;4945432;28;20531;-58
2023/05/18 13:38:05;;;;;;;8.57;4.93;;;19.20;99.90;;;;;;4946604;28;20231;-58
2023/05/18 13:40:33;;;;;;;10.07;4.90;;;19.60;99.90;;;;;;4943649;28;20877;-58
2023/05/18 13:43:04;;;;;;;11.27;4.90;;;19.70;99.90;;;;;;4949751;28;20290;-58
2023/05/18 13:45:34;;;;;;;10.47;4.57;;;19.90;99.90;;;;;;4949791;28;20238;-57
2023/05/18 13:48:05;;;;;;;5.73;4.80;;;19.80;99.90;;;;;;4947747;29;20292;-57
2023/05/18 13:50:37;;;;;;;13.33;5.00;;;20.00;99.90;;;;;;4947288;28;20223;-58
2023/05/18 13:53:05;;;;;;;9.67;3.97;;;20.30;99.90;;;;;;4942712;28;20583;-58
2023/05/18 13:55:34;;;;;;;9.90;4.80;;;20.50;99.90;;;;;;4940878;28;20658;-58
2023/05/18 13:58:05;;;;;;;10.20;4.90;;;20.70;99.90;;;;;;4938193;28;20571;-58
2023/05/18 14:00:35;;;;;;;10.23;5.20;;;20.50;99.90;;;;;;4950331;28;20196;-58
2023/05/18 14:03:03;;;;;;;11.70;4.80;;;20.40;99.90;;;;;;4944190;28;20228;-58
2023/05/18 14:05:32;;;;;;;11.07;5.70;;;20.70;99.90;;;;;;4947837;28;20276;-58
2023/05/18 14:08:00;;;;;;;13.00;5.00;;;20.30;99.90;;;;;;4947803;28;20236;-58